Airfield :
LOGIN :

Register | Disclaimer

   EN    FR    IT 

 










Legend :    VFR   Marginal VFR   IFR   Intensive IFR   Very Intensive IFR
Visi :
Ceiling :
>= 8 km
>= 3000ft
5 to 8 km
1000 to 3000 ft
1500m to 5 km
500 to 1000 ft
800 to 1500m
200 to 500 ft
< 800m
< 200 ft
Symbols :   Thunderstorms  Fog  Heavy snow  Heavy precipitations  Wind > 20 kt
SIGMETs :     Misc.  Thunderstorms  Icing  Turbulence  Mountain Waves  Volcanic Ashes






- Airport Elevation : 22 ft
- IATA code : SKG


LGTS - Thessaloniki

CURRENT METAR :
  • 310420Z 00000KT 9999 FEW030 15/12 Q1013 NOSIG

EXPIRED METARs :
  • 310350Z VRB02KT 9999 FEW030 13/11 Q1013 NOSIG
  • 310320Z 13003KT 9999 FEW030 13/11 Q1013 NOSIG
  • 310250Z VRB03KT 9999 FEW030 15/11 Q1013 NOSIG
  • 310220Z VRB03KT 9999 FEW030 15/11 Q1013 NOSIG
  • 310150Z 31005KT 9999 FEW030 17/13 Q1013 NOSIG

TAF TAF LGTS
Valid from the 31 at 00:00 until the 01 at 00:00 UTC


302300Z 3100/3124 VRB03KT 9999 FEW030
BECMG 3107/3109 SCT030
TEMPO 3109/3124 6000 SHRA FEW018TCU SCT025
PROB40
TEMPO 3111/3124 4000 TSRA FEW010 FEW016CB SCT020



MET'MAP, your aeronautical weather chart ! - Copyright ORBIFLY December 2007 - Disclaimer

ORBIFLY MET'MAP TEAM :

Programming & Development : Alexandra Zaïnal
Concept & original design : Baudouin d'Aumeries
Assistance for programming : Marc-Olivier Méhu
Technical & hardware support : Manuel Goepfert

Contact : metmap@orbifly.com




SOURCES & CREDITS :

   NOAA